createdAt,value
2018-11-04T00:00:45.919Z,20.97
2018-11-04T00:05:42.668Z,20.87
2018-11-04T00:10:39.410Z,20.43
2018-11-04T00:15:36.134Z,19.73
2018-11-04T00:20:32.880Z,19.57
2018-11-04T00:25:29.577Z,20.07
2018-11-04T00:30:26.389Z,20.33
2018-11-04T00:35:23.129Z,18.97
2018-11-04T00:40:19.896Z,19.93
2018-11-04T00:45:16.622Z,19.93
2018-11-04T00:50:14.309Z,19.47
2018-11-04T00:55:11.900Z,19.97
2018-11-04T01:00:09.681Z,19.67
2018-11-04T01:05:06.857Z,19.53
2018-11-04T01:10:04.310Z,19.53
2018-11-04T01:15:01.031Z,18.60
2018-11-04T01:19:57.741Z,18.87
2018-11-04T01:24:54.469Z,18.07
2018-11-04T01:29:51.239Z,19.20
2018-11-04T01:34:47.947Z,19.10
2018-11-04T01:39:44.691Z,19.43
2018-11-04T01:44:41.481Z,19.13
2018-11-04T01:49:38.228Z,19.10
2018-11-04T01:54:35.000Z,19.03
2018-11-04T01:59:31.715Z,19.33
2018-11-04T02:04:28.451Z,18.97
2018-11-04T02:09:25.183Z,18.97
2018-11-04T02:14:21.947Z,19.20
2018-11-04T02:19:18.723Z,19.37
2018-11-04T02:24:15.457Z,17.90
2018-11-04T02:29:12.577Z,19.30
2018-11-04T02:34:09.315Z,18.40
2018-11-04T02:39:06.281Z,19.47
2018-11-04T02:44:03.007Z,18.03
2018-11-04T02:48:59.767Z,18.33
2018-11-04T02:53:56.523Z,18.23
2018-11-04T02:58:53.246Z,19.03
2018-11-04T03:03:50.010Z,18.73
2018-11-04T03:08:46.757Z,18.07
2018-11-04T03:13:43.471Z,18.80
2018-11-04T03:18:40.267Z,18.23
2018-11-04T03:23:37.006Z,17.63
2018-11-04T03:28:33.719Z,17.63
2018-11-04T03:33:30.495Z,17.60
2018-11-04T03:38:27.648Z,17.33
2018-11-04T03:43:24.354Z,16.93
2018-11-04T03:48:21.188Z,16.40
2018-11-04T03:53:17.905Z,14.83
2018-11-04T03:58:14.656Z,15.33
2018-11-04T04:03:11.613Z,14.60
2018-11-04T04:08:08.440Z,15.07
2018-11-04T04:13:05.150Z,14.23
2018-11-04T04:18:01.892Z,13.90
2018-11-04T04:22:58.591Z,14.43
2018-11-04T04:27:55.344Z,13.97
2018-11-04T04:32:52.029Z,14.37
2018-11-04T04:37:48.838Z,13.10
2018-11-04T04:42:45.617Z,14.43
2018-11-04T04:47:42.294Z,13.07
2018-11-04T04:52:39.019Z,13.83
2018-11-04T04:57:35.712Z,13.33
2018-11-04T05:02:32.388Z,13.10
2018-11-04T05:07:29.069Z,13.77
2018-11-04T05:12:25.804Z,12.67
2018-11-04T05:17:30.231Z,12.87
2018-11-04T05:22:26.981Z,12.57
2018-11-04T05:27:23.670Z,13.73
2018-11-04T05:32:20.447Z,13.23
2018-11-04T05:37:17.244Z,12.77
2018-11-04T05:42:14.012Z,12.73
2018-11-04T05:47:10.944Z,12.50
2018-11-04T05:52:07.702Z,11.83
2018-11-04T05:57:04.729Z,11.40
2018-11-04T06:02:01.468Z,11.70
2018-11-04T06:06:58.241Z,12.27
2018-11-04T06:11:54.938Z,11.53
2018-11-04T06:16:51.716Z,11.77
2018-11-04T06:21:48.774Z,11.43
2018-11-04T06:26:45.620Z,11.60
2018-11-04T06:31:42.442Z,11.97
2018-11-04T06:36:39.109Z,11.23
2018-11-04T06:41:35.821Z,11.77
2018-11-04T06:46:32.512Z,11.60
2018-11-04T06:51:29.209Z,12.00
2018-11-04T06:56:26.152Z,11.60
2018-11-04T07:01:22.933Z,12.00
2018-11-04T07:06:19.678Z,10.97
2018-11-04T07:11:16.355Z,11.27
2018-11-04T07:16:13.072Z,10.27
2018-11-04T07:21:09.804Z,10.90
2018-11-04T07:26:06.545Z,10.07
2018-11-04T07:31:05.062Z,10.60
2018-11-04T07:36:01.985Z,10.80
2018-11-04T07:40:58.644Z,9.90
2018-11-04T07:45:55.374Z,9.10
2018-11-04T07:50:52.094Z,9.00
2018-11-04T07:55:48.770Z,9.77
2018-11-04T08:00:45.517Z,8.77
2018-11-04T08:05:42.578Z,8.87
2018-11-04T08:10:39.287Z,8.33
2018-11-04T08:15:36.021Z,8.13
2018-11-04T08:20:32.768Z,8.50
2018-11-04T08:25:29.501Z,7.30
2018-11-04T08:30:26.458Z,8.03
2018-11-04T08:35:23.195Z,7.43
2018-11-04T08:40:19.993Z,7.33
2018-11-04T08:45:16.609Z,6.80
2018-11-04T08:50:13.375Z,7.27
2018-11-04T08:55:10.638Z,7.00
2018-11-04T09:00:08.820Z,7.67
2018-11-04T09:05:05.574Z,7.03
2018-11-04T09:10:02.565Z,6.93
2018-11-04T09:14:59.268Z,6.93
2018-11-04T09:19:55.972Z,6.80
2018-11-04T09:24:52.731Z,6.90
2018-11-04T09:29:49.546Z,6.97
2018-11-04T09:34:46.411Z,6.43
2018-11-04T09:39:43.079Z,6.23
2018-11-04T09:44:39.797Z,7.20
2018-11-04T09:49:36.513Z,7.27
2018-11-04T09:54:33.237Z,7.43
2018-11-04T09:59:30.039Z,8.73
2018-11-04T10:04:26.849Z,7.77
2018-11-04T10:09:24.212Z,7.20
2018-11-04T10:14:20.913Z,7.73
2018-11-04T10:19:17.955Z,8.60
2018-11-04T10:24:14.452Z,8.63
2018-11-04T10:29:11.395Z,8.90
2018-11-04T10:34:08.143Z,8.37
2018-11-04T10:39:06.277Z,9.27
2018-11-04T10:44:03.060Z,9.20
2018-11-04T10:48:59.803Z,9.30
2018-11-04T10:53:56.535Z,8.47
2018-11-04T10:58:53.273Z,8.33
2018-11-04T11:03:49.937Z,8.27
2018-11-04T11:08:46.741Z,7.60
2018-11-04T11:13:43.489Z,8.10
2018-11-04T11:18:40.220Z,7.43
2018-11-04T11:23:37.023Z,8.07
2018-11-04T11:28:33.737Z,8.50
2018-11-04T11:33:30.426Z,8.33
2018-11-04T11:38:27.344Z,7.67
2018-11-04T11:43:24.115Z,7.50
2018-11-04T11:48:20.821Z,7.50
2018-11-04T11:53:17.548Z,7.80
2018-11-04T11:58:14.261Z,8.07
2018-11-04T12:03:11.311Z,8.33
2018-11-04T12:08:08.109Z,8.27
2018-11-04T12:13:04.779Z,7.63
2018-11-04T12:18:01.473Z,8.07
2018-11-04T12:22:58.249Z,8.10
2018-11-04T12:27:54.994Z,9.20
2018-11-04T12:32:51.863Z,8.50
2018-11-04T12:37:48.592Z,7.90
2018-11-04T12:42:45.372Z,8.00
2018-11-04T12:47:42.332Z,8.53
2018-11-04T12:52:39.217Z,8.70
2018-11-04T12:57:36.090Z,7.43
2018-11-04T13:02:32.930Z,7.30
2018-11-04T13:07:29.741Z,7.60
2018-11-04T13:12:26.445Z,8.20
2018-11-04T13:17:23.430Z,9.00
2018-11-04T13:22:20.180Z,8.10
2018-11-04T13:27:16.886Z,8.17
2018-11-04T13:32:13.595Z,8.10
2018-11-04T13:37:10.372Z,8.30
2018-11-04T13:42:07.090Z,7.80
2018-11-04T13:47:03.879Z,7.90
2018-11-04T13:52:00.657Z,9.10
2018-11-04T13:56:57.581Z,21.53
2018-11-04T14:01:54.297Z,11.10
2018-11-04T14:06:51.047Z,7.47
2018-11-04T14:11:47.787Z,8.33
2018-11-04T14:16:44.528Z,8.07
2018-11-04T14:21:41.261Z,7.60
2018-11-04T14:26:37.971Z,7.47
2018-11-04T14:31:34.642Z,7.83
2018-11-04T14:36:31.323Z,10.50
2018-11-04T14:41:28.025Z,8.53
2018-11-04T14:46:24.735Z,8.00
2018-11-04T14:51:21.511Z,7.70
2018-11-04T14:56:18.367Z,7.57
2018-11-04T15:01:15.304Z,7.50
2018-11-04T15:06:12.019Z,6.53
2018-11-04T15:11:08.684Z,8.33
2018-11-04T15:16:05.440Z,9.20
2018-11-04T15:21:02.204Z,6.70
2018-11-04T15:25:58.973Z,10.50
2018-11-04T15:30:55.788Z,7.67
2018-11-04T15:35:52.473Z,7.23
2018-11-04T15:40:49.257Z,6.57
2018-11-04T15:45:45.960Z,6.33
2018-11-04T15:50:42.684Z,7.13
2018-11-04T15:55:39.413Z,7.63
2018-11-04T16:00:36.143Z,6.20
2018-11-04T16:05:32.954Z,7.10
2018-11-04T16:10:29.660Z,7.13
2018-11-04T16:15:26.445Z,7.10
2018-11-04T16:20:23.203Z,6.00
2018-11-04T16:25:19.980Z,7.47
2018-11-04T16:30:16.671Z,7.73
2018-11-04T16:35:14.218Z,12.40
2018-11-04T16:40:11.087Z,10.40
2018-11-04T16:45:09.089Z,8.60
2018-11-04T16:50:06.320Z,8.53
2018-11-04T16:55:02.947Z,10.13
2018-11-04T16:59:59.647Z,8.93
2018-11-04T17:04:56.455Z,8.70
2018-11-04T17:09:53.203Z,8.27
2018-11-04T17:14:50.004Z,7.77
2018-11-04T17:19:46.687Z,9.50
2018-11-04T17:24:43.417Z,8.40
2018-11-04T17:29:40.151Z,8.73
2018-11-04T17:34:36.925Z,8.77
2018-11-04T17:39:34.627Z,17.23
2018-11-04T17:44:31.327Z,13.90
2018-11-04T17:49:28.090Z,9.63
2018-11-04T17:54:24.766Z,8.73
2018-11-04T17:59:21.668Z,8.90
2018-11-04T18:04:18.392Z,9.03
2018-11-04T18:09:15.049Z,10.00
2018-11-04T18:14:11.782Z,9.17
2018-11-04T18:19:08.557Z,9.57
2018-11-04T18:24:05.385Z,10.43
2018-11-04T18:29:02.177Z,9.20
2018-11-04T18:33:58.919Z,9.80
2018-11-04T18:38:55.699Z,11.67
2018-11-04T18:43:52.528Z,9.87
2018-11-04T18:48:49.149Z,9.27
2018-11-04T18:53:45.921Z,10.20
2018-11-04T18:58:42.890Z,9.90
2018-11-04T19:03:39.575Z,13.03
2018-11-04T19:08:36.297Z,11.23
2018-11-04T19:13:33.275Z,11.57
2018-11-04T19:18:30.132Z,12.20
2018-11-04T19:23:26.900Z,18.00
2018-11-04T19:28:23.839Z,18.30
2018-11-04T19:33:20.756Z,16.20
2018-11-04T19:38:17.549Z,13.53
2018-11-04T19:43:14.478Z,14.60
2018-11-04T19:48:11.245Z,13.50
2018-11-04T19:53:07.939Z,12.87
2018-11-04T19:58:04.996Z,12.53
2018-11-04T20:03:01.971Z,14.10
2018-11-04T20:07:58.744Z,14.30
2018-11-04T20:13:01.042Z,16.00
2018-11-04T20:17:57.802Z,14.47
2018-11-04T20:22:54.612Z,15.83
2018-11-04T20:27:51.396Z,13.93
2018-11-04T20:32:53.779Z,14.53
2018-11-04T20:37:50.520Z,13.90
2018-11-04T20:42:47.283Z,12.70
2018-11-04T20:47:49.654Z,14.13
2018-11-04T20:52:46.373Z,13.07
2018-11-04T20:57:47.693Z,13.20
2018-11-04T21:02:44.451Z,13.07
2018-11-04T21:07:41.431Z,14.23
2018-11-04T21:12:38.590Z,14.00
2018-11-04T21:17:35.373Z,14.27
2018-11-04T21:22:32.183Z,14.43
2018-11-04T21:27:28.929Z,14.70
2018-11-04T21:32:25.622Z,13.73
2018-11-04T21:37:22.454Z,14.70
2018-11-04T21:42:19.251Z,15.20
2018-11-04T21:47:16.016Z,15.20
2018-11-04T21:52:12.693Z,14.80
2018-11-04T21:57:09.357Z,14.43
2018-11-04T22:02:06.425Z,14.23
2018-11-04T22:07:03.229Z,14.50
2018-11-04T22:11:59.934Z,14.67
2018-11-04T22:16:57.204Z,15.00
2018-11-04T22:21:53.996Z,15.57
2018-11-04T22:26:50.761Z,16.27
2018-11-04T22:31:47.495Z,16.40
2018-11-04T22:36:44.350Z,17.10
2018-11-04T22:41:41.019Z,17.50
2018-11-04T22:46:38.106Z,18.60
2018-11-04T22:51:34.825Z,17.07
2018-11-04T22:56:31.525Z,17.93
2018-11-04T23:01:28.465Z,19.17
2018-11-04T23:06:26.180Z,18.47
2018-11-04T23:11:22.841Z,17.90
2018-11-04T23:16:19.623Z,18.37
2018-11-04T23:21:16.306Z,20.37
2018-11-04T23:26:13.068Z,19.90
2018-11-04T23:31:09.866Z,19.97
2018-11-04T23:36:06.612Z,18.90
2018-11-04T23:41:03.364Z,21.47
2018-11-04T23:46:00.198Z,21.40
2018-11-04T23:50:56.923Z,20.93
2018-11-04T23:55:53.681Z,21.23
